Time;durP1;ratioP1;P1;durP2;ratioP2;P2;SDS_P1;SDS_P2;PMS_P1;PMS_P2;Temp;Humidity;BMP_temperature;BMP_pressure;BME280_temperature;BME280_humidity;BME280_pressure;Samples;Min_cycle;Max_cycle;Signal;HPM_P1;HPM_P2
2022/08/04 00:02:12;;;;;;;11.85;5.07;;;20.60;99.90;;;;;;5018675;28;20408;-92
2022/08/04 00:04:46;;;;;;;15.68;6.15;;;20.60;99.90;;;;;;5013333;28;20073;-91
2022/08/04 00:07:17;;;;;;;15.75;5.82;;;20.50;99.90;;;;;;5017427;28;20439;-91
2022/08/04 00:09:58;;;;;;;13.95;5.40;;;20.50;99.90;;;;;;4996226;28;20057;-92
2022/08/04 00:12:29;;;;;;;12.05;5.25;;;20.50;99.90;;;;;;5013841;28;20076;-92
2022/08/04 00:14:58;;;;;;;14.07;5.25;;;20.50;99.90;;;;;;4995014;28;20042;-91
2022/08/04 00:17:40;;;;;;;11.25;5.25;;;20.50;99.90;;;;;;5013609;28;20041;-92
2022/08/04 00:20:08;;;;;;;13.40;5.63;;;20.40;99.90;;;;;;4995480;28;20042;-92
2022/08/04 00:22:34;;;;;;;14.23;5.43;;;20.40;99.90;;;;;;4995028;28;20421;-92
2022/08/04 00:25:04;;;;;;;12.07;5.38;;;20.40;99.90;;;;;;4995112;28;20512;-92
2022/08/04 00:27:31;;;;;;;12.80;5.20;;;20.40;99.90;;;;;;4995520;28;20085;-92
2022/08/04 00:29:59;;;;;;;16.08;5.95;;;20.60;99.90;;;;;;5012187;28;20042;-91
2022/08/04 00:32:28;;;;;;;14.82;5.70;;;20.60;99.90;;;;;;4994903;28;20062;-92
2022/08/04 00:34:56;;;;;;;11.90;5.60;;;20.30;99.90;;;;;;5013060;28;20073;-91
2022/08/04 00:37:23;;;;;;;13.75;5.28;;;20.50;99.90;;;;;;4994623;28;20100;-92
2022/08/04 00:39:50;;;;;;;13.57;5.53;;;20.50;99.90;;;;;;5012580;28;20050;-92
2022/08/04 00:42:43;;;;;;;12.07;5.53;;;20.30;99.90;;;;;;5015571;22;20137;-92
2022/08/04 00:45:36;;;;;;;14.67;6.77;;;20.50;99.90;;;;;;4992536;28;20038;-92
2022/08/04 00:48:36;;;;;;;13.98;5.88;;;20.30;99.90;;;;;;4991607;28;20045;-92
2022/08/04 00:51:11;;;;;;;15.80;5.72;;;20.20;99.90;;;;;;4992762;28;20100;-91
2022/08/04 00:53:46;;;;;;;14.65;5.55;;;20.20;99.90;;;;;;4994912;28;20064;-91
2022/08/04 00:56:39;;;;;;;14.15;6.18;;;20.20;99.90;;;;;;4994712;28;20132;-92
2022/08/04 00:59:31;;;;;;;12.38;5.95;;;20.50;99.90;;;;;;4992804;28;20052;-91
2022/08/04 01:02:05;;;;;;;13.77;5.70;;;20.10;99.90;;;;;;4992022;28;20050;-92
2022/08/04 01:04:45;;;;;;;14.55;5.55;;;20.10;99.90;;;;;;4998901;28;20129;-91
2022/08/04 01:07:44;;;;;;;14.98;5.95;;;20.20;99.90;;;;;;4994049;28;20054;-92
2022/08/04 01:10:34;;;;;;;13.10;6.00;;;20.00;99.90;;;;;;4991359;28;20053;-92
2022/08/04 01:13:25;;;;;;;16.27;6.10;;;20.00;99.90;;;;;;4990697;28;20414;-92
2022/08/04 01:16:02;;;;;;;12.20;5.75;;;19.90;99.90;;;;;;4993989;28;20486;-92
2022/08/04 01:18:52;;;;;;;12.48;6.22;;;19.90;99.90;;;;;;4996316;28;20042;-92
2022/08/04 01:21:56;;;;;;;11.80;6.13;;;19.80;99.90;;;;;;4996937;28;20051;-92
2022/08/04 01:24:44;;;;;;;12.40;6.00;;;19.80;99.90;;;;;;4993639;28;20402;-92
2022/08/04 01:27:48;;;;;;;13.13;5.82;;;19.70;99.90;;;;;;5002046;28;20050;-91
2022/08/04 01:30:14;;;;;;;12.93;5.90;;;19.70;99.90;;;;;;4994994;28;20053;-91
2022/08/04 01:32:49;;;;;;;13.10;5.85;;;19.70;99.90;;;;;;5007305;28;20094;-92
2022/08/04 01:35:20;;;;;;;15.07;6.63;;;19.90;99.90;;;;;;5011448;28;20038;-91
2022/08/04 01:38:04;;;;;;;14.43;6.78;;;19.60;99.90;;;;;;4998508;28;20050;-91
2022/08/04 01:40:30;;;;;;;13.85;6.07;;;19.60;99.90;;;;;;4995918;28;20050;-92
2022/08/04 01:42:59;;;;;;;15.55;6.50;;;19.50;99.90;;;;;;4994419;28;20058;-91
2022/08/04 01:45:25;;;;;;;14.68;6.18;;;19.50;99.90;;;;;;4996663;28;20047;-92
2022/08/04 01:47:52;;;;;;;11.10;5.75;;;19.50;99.90;;;;;;4993830;28;20050;-91
2022/08/04 01:50:19;;;;;;;14.20;6.13;;;19.50;99.90;;;;;;4996492;28;20046;-92
2022/08/04 01:52:46;;;;;;;14.65;6.03;;;19.70;99.90;;;;;;4994411;28;20050;-92
2022/08/04 01:55:14;;;;;;;12.52;6.13;;;19.50;99.90;;;;;;4995198;28;20104;-92
2022/08/04 01:57:42;;;;;;;15.18;6.57;;;19.50;99.90;;;;;;4996277;28;20095;-92
2022/08/04 02:00:09;;;;;;;15.55;6.68;;;19.40;99.90;;;;;;4994817;28;20044;-90
2022/08/04 02:02:35;;;;;;;14.75;6.10;;;19.30;99.90;;;;;;4989515;28;20074;-92
2022/08/04 02:05:01;;;;;;;12.27;5.72;;;19.30;99.90;;;;;;4974524;28;20042;-91
2022/08/04 02:08:03;;;;;;;16.83;5.93;;;19.60;99.90;;;;;;4976005;28;20047;-91
2022/08/04 02:11:14;;;;;;;12.80;6.18;;;19.10;99.90;;;;;;4974900;28;20043;-91
2022/08/04 02:14:02;;;;;;;14.85;6.15;;;19.20;99.90;;;;;;4975337;28;20102;-91
2022/08/04 02:16:51;;;;;;;15.20;5.88;;;19.20;99.90;;;;;;4975654;28;20065;-90
2022/08/04 02:19:48;;;;;;;14.23;6.20;;;19.20;99.90;;;;;;4974872;28;20050;-91
2022/08/04 02:22:21;;;;;;;14.48;6.10;;;19.60;99.90;;;;;;4975832;28;20054;-91
2022/08/04 02:25:07;;;;;;;16.00;5.80;;;19.00;99.90;;;;;;4974703;28;20407;-92
2022/08/04 02:28:10;;;;;;;16.55;5.78;;;19.10;99.90;;;;;;4999476;28;20047;-91
2022/08/04 02:31:00;;;;;;;10.65;4.93;;;19.10;99.90;;;;;;4991414;28;20054;-91
2022/08/04 02:33:46;;;;;;;14.90;6.28;;;19.60;99.90;;;;;;4984558;28;20105;-92
2022/08/04 02:36:22;;;;;;;12.38;5.82;;;19.20;99.90;;;;;;4974225;28;20394;-91
2022/08/04 02:39:02;;;;;;;15.05;5.85;;;19.20;99.90;;;;;;4974252;28;20053;-92
2022/08/04 02:41:48;;;;;;;16.50;6.53;;;19.50;99.90;;;;;;4974383;28;20455;-91
2022/08/04 02:47:09;;;;;;;13.07;6.07;;;19.20;99.90;;;;;;4980184;28;20050;-90
2022/08/04 02:49:40;;;;;;;15.43;5.85;;;19.90;99.90;;;;;;4974413;28;20058;-91
2022/08/04 02:52:09;;;;;;;16.15;5.80;;;19.40;99.90;;;;;;4977025;28;20082;-91
2022/08/04 02:54:53;;;;;;;15.05;5.57;;;19.80;99.90;;;;;;4977562;28;20035;-91
2022/08/04 02:57:24;;;;;;;17.30;5.90;;;19.10;99.90;;;;;;4973252;28;20047;-91
2022/08/04 03:00:14;;;;;;;13.48;5.65;;;19.60;99.90;;;;;;4975508;28;20050;-91
2022/08/04 03:03:05;;;;;;;14.80;6.10;;;19.10;99.90;;;;;;4980090;28;20078;-91
2022/08/04 03:06:09;;;;;;;13.93;6.72;;;19.10;99.90;;;;;;4974268;28;20053;-91
2022/08/04 03:09:04;;;;;;;14.40;5.95;;;19.10;99.90;;;;;;4995020;28;20034;-91
2022/08/04 03:12:20;;;;;;;12.93;5.78;;;19.10;99.90;;;;;;4978774;28;20051;-92
2022/08/04 03:15:16;;;;;;;15.43;5.85;;;19.10;99.90;;;;;;4973855;28;20100;-91
2022/08/04 03:18:20;;;;;;;13.70;5.72;;;19.00;99.90;;;;;;4973702;28;20107;-92
2022/08/04 03:21:22;;;;;;;16.67;6.30;;;19.00;99.90;;;;;;4975076;28;20042;-91
2022/08/04 03:24:39;;;;;;;14.68;5.65;;;19.00;99.90;;;;;;4974534;28;20050;-92
2022/08/04 03:27:59;;;;;;;16.27;5.82;;;18.90;99.90;;;;;;4957048;28;20051;-91
2022/08/04 03:31:02;;;;;;;12.32;5.93;;;18.90;99.90;;;;;;4974625;28;20046;-90
2022/08/04 03:34:14;;;;;;;14.45;6.10;;;18.90;99.90;;;;;;4972903;28;20522;-91
2022/08/04 03:37:17;;;;;;;14.50;5.70;;;18.80;99.90;;;;;;4973429;28;20078;-91
2022/08/04 03:40:00;;;;;;;15.70;5.70;;;18.90;99.90;;;;;;4972627;28;20046;-91
2022/08/04 03:43:09;;;;;;;14.48;5.72;;;18.80;99.90;;;;;;4972692;28;20058;-91
2022/08/04 03:46:04;;;;;;;12.85;5.45;;;18.80;99.90;;;;;;4974686;28;20464;-91
2022/08/04 03:48:55;;;;;;;13.38;5.70;;;19.10;99.90;;;;;;4973100;28;20090;-91
2022/08/04 03:54:51;;;;;;;15.88;5.50;;;18.80;99.90;;;;;;4973205;28;20050;-92
2022/08/04 03:57:54;;;;;;;17.88;5.68;;;18.80;99.90;;;;;;4973553;28;20145;-91
2022/08/04 04:01:02;;;;;;;12.15;5.32;;;18.70;99.90;;;;;;4972326;28;20051;-91
2022/08/04 04:03:59;;;;;;;15.23;5.68;;;18.80;99.90;;;;;;4964706;28;20046;-91
2022/08/04 04:06:36;;;;;;;13.60;5.18;;;18.80;99.90;;;;;;4979844;28;20487;-91
2022/08/04 04:09:22;;;;;;;11.88;5.22;;;18.80;99.90;;;;;;4972770;28;20126;-91
2022/08/04 04:12:25;;;;;;;14.05;4.95;;;19.20;99.90;;;;;;4974600;28;20141;-92
2022/08/04 04:15:02;;;;;;;16.73;5.45;;;18.80;99.90;;;;;;4972092;28;20083;-91
2022/08/04 04:17:56;;;;;;;15.68;5.43;;;18.90;99.90;;;;;;4972997;28;20043;-91
2022/08/04 04:20:40;;;;;;;17.63;5.35;;;18.80;99.90;;;;;;4974460;28;20043;-91
2022/08/04 04:23:30;;;;;;;14.57;6.20;;;18.80;99.90;;;;;;4971814;28;20454;-90
2022/08/04 04:26:16;;;;;;;14.77;5.63;;;18.80;99.90;;;;;;4972607;28;20053;-91
2022/08/04 04:29:21;;;;;;;15.07;5.40;;;18.80;99.90;;;;;;4972481;28;20491;-90
2022/08/04 04:31:53;;;;;;;15.00;5.47;;;18.80;99.90;;;;;;4972814;28;20043;-91
2022/08/04 04:34:43;;;;;;;14.52;5.45;;;18.80;99.90;;;;;;4973212;28;20067;-91
2022/08/04 04:37:29;;;;;;;15.32;6.28;;;18.80;99.90;;;;;;4972925;28;20047;-90
2022/08/04 04:40:20;;;;;;;14.35;5.40;;;18.90;99.90;;;;;;4976553;28;20054;-90
2022/08/04 04:43:04;;;;;;;16.98;5.47;;;18.90;99.90;;;;;;4984508;28;20070;-91
2022/08/04 04:45:53;;;;;;;12.48;4.97;;;18.90;99.90;;;;;;4985131;28;20055;-91
2022/08/04 04:48:49;;;;;;;17.33;5.25;;;19.00;99.90;;;;;;4975850;28;20051;-92
2022/08/04 04:51:27;;;;;;;18.48;5.75;;;18.90;99.90;;;;;;4977210;28;20463;-90
2022/08/04 04:54:31;;;;;;;14.13;5.65;;;19.00;99.90;;;;;;4977406;28;20454;-90
2022/08/04 04:57:06;;;;;;;13.45;5.03;;;19.10;99.90;;;;;;4975356;28;20141;-91
2022/08/04 04:59:46;;;;;;;14.27;5.55;;;19.20;99.90;;;;;;4981286;28;20047;-90
2022/08/04 05:02:11;;;;;;;12.35;5.20;;;19.20;99.90;;;;;;4981769;28;20050;-91
2022/08/04 05:04:55;;;;;;;18.95;5.85;;;19.30;99.90;;;;;;4977724;28;20054;-90
2022/08/04 05:07:36;;;;;;;14.13;5.45;;;19.30;99.90;;;;;;4980391;28;20058;-90
2022/08/04 05:10:23;;;;;;;16.75;5.55;;;19.40;99.90;;;;;;4979231;28;20084;-91
2022/08/04 05:13:10;;;;;;;12.55;4.40;;;19.40;99.90;;;;;;4978816;28;20061;-91
2022/08/04 05:15:41;;;;;;;13.00;4.90;;;19.50;99.90;;;;;;4996506;28;20494;-91
2022/08/04 05:18:11;;;;;;;14.23;4.72;;;19.60;99.90;;;;;;4978391;28;20054;-90
2022/08/04 05:20:52;;;;;;;13.80;5.40;;;19.70;99.90;;;;;;4996433;28;20038;-91
2022/08/04 05:23:23;;;;;;;19.38;4.90;;;19.70;99.90;;;;;;4979199;28;20050;-91
2022/08/04 05:25:58;;;;;;;13.95;5.07;;;19.90;99.90;;;;;;4997778;28;20053;-91
2022/08/04 05:28:40;;;;;;;15.77;4.93;;;19.80;99.90;;;;;;4979399;28;20129;-91
2022/08/04 05:31:17;;;;;;;13.80;4.80;;;19.90;99.90;;;;;;5000743;28;20045;-92
2022/08/04 05:33:53;;;;;;;13.45;4.63;;;20.00;99.90;;;;;;4998491;28;20053;-89
2022/08/04 05:36:24;;;;;;;14.13;4.97;;;20.50;99.90;;;;;;4997592;28;20394;-86
2022/08/04 05:38:52;;;;;;;12.23;4.63;;;20.10;99.90;;;;;;4977808;28;20035;-79
2022/08/04 05:41:20;;;;;;;13.60;5.20;;;20.30;99.90;;;;;;4996262;28;20058;-78
2022/08/04 05:43:47;;;;;;;14.60;4.97;;;20.30;99.90;;;;;;4995968;28;20042;-78
2022/08/04 05:46:15;;;;;;;17.52;5.28;;;20.30;99.90;;;;;;4977929;28;20041;-78
2022/08/04 05:48:43;;;;;;;14.65;4.82;;;20.40;99.90;;;;;;4978798;28;20054;-80
2022/08/04 05:51:10;;;;;;;14.25;5.05;;;20.50;99.90;;;;;;4996249;28;20031;-79
2022/08/04 05:53:36;;;;;;;15.70;4.93;;;20.50;99.90;;;;;;4995218;28;20054;-79
2022/08/04 05:56:04;;;;;;;14.32;5.22;;;20.60;99.90;;;;;;4995842;28;20376;-79
2022/08/04 05:58:30;;;;;;;15.80;5.07;;;20.70;99.90;;;;;;4978573;28;20180;-79
2022/08/04 06:01:00;;;;;;;12.90;4.70;;;21.00;99.90;;;;;;4977349;28;20069;-79
2022/08/04 06:03:30;;;;;;;14.63;5.15;;;20.80;99.90;;;;;;4977125;28;20128;-79
2022/08/04 06:05:57;;;;;;;16.83;4.90;;;20.90;99.90;;;;;;4978277;28;20057;-79
2022/08/04 06:08:23;;;;;;;14.55;5.00;;;21.00;99.90;;;;;;4977317;28;20047;-80
2022/08/04 06:10:52;;;;;;;14.70;5.15;;;21.10;99.90;;;;;;4995290;28;20124;-83
2022/08/04 06:13:24;;;;;;;12.38;4.20;;;21.30;99.90;;;;;;4977958;28;20134;-81
2022/08/04 06:15:52;;;;;;;13.50;4.90;;;21.30;99.90;;;;;;5005712;28;20037;-81
2022/08/04 06:18:19;;;;;;;13.80;4.28;;;21.40;99.90;;;;;;5011202;28;20101;-81
2022/08/04 06:20:46;;;;;;;13.90;4.57;;;21.60;99.90;;;;;;5004963;28;20077;-81
2022/08/04 06:23:15;;;;;;;14.38;4.78;;;21.70;99.90;;;;;;5021004;28;20117;-81
2022/08/04 06:25:48;;;;;;;15.68;4.47;;;21.70;99.90;;;;;;5006525;28;20049;-81
2022/08/04 06:28:15;;;;;;;13.88;4.65;;;21.70;99.90;;;;;;5014398;28;20108;-81
2022/08/04 06:30:46;;;;;;;11.30;4.35;;;21.80;99.90;;;;;;4996951;28;20054;-81
2022/08/04 06:33:31;;;;;;;15.55;5.00;;;21.90;99.90;;;;;;5014972;28;20045;-80
2022/08/04 06:35:59;;;;;;;13.18;4.60;;;22.10;99.90;;;;;;4996393;28;20042;-80
2022/08/04 06:38:27;;;;;;;14.65;5.20;;;22.10;99.90;;;;;;5014846;28;20125;-80
2022/08/04 06:40:54;;;;;;;19.40;4.90;;;22.30;99.90;;;;;;4996298;28;20046;-80
2022/08/04 06:43:21;;;;;;;18.45;5.28;;;22.40;99.90;;;;;;4996162;28;20050;-81
2022/08/04 06:45:48;;;;;;;11.75;4.55;;;22.60;99.90;;;;;;4996575;28;20176;-80
2022/08/04 06:48:16;;;;;;;17.15;4.90;;;22.50;99.90;;;;;;5014364;28;20046;-80
2022/08/04 06:50:44;;;;;;;14.80;4.63;;;22.60;99.90;;;;;;5013679;28;20056;-83
2022/08/04 06:53:10;;;;;;;12.70;4.60;;;22.70;99.90;;;;;;4996662;28;20077;-83
2022/08/04 06:55:37;;;;;;;12.75;4.43;;;22.80;99.90;;;;;;5004471;28;20543;-81
2022/08/04 06:58:05;;;;;;;15.15;4.75;;;23.00;99.90;;;;;;5023187;28;20046;-82
2022/08/04 07:00:32;;;;;;;11.77;4.10;;;23.10;99.90;;;;;;5003014;28;20052;-81
2022/08/04 07:02:58;;;;;;;14.88;4.47;;;23.30;99.90;;;;;;5022538;28;20068;-82
2022/08/04 07:05:24;;;;;;;11.32;4.28;;;23.40;99.90;;;;;;5024570;28;20038;-81
2022/08/04 07:07:50;;;;;;;12.88;4.00;;;23.60;99.90;;;;;;5022687;28;20520;-82
2022/08/04 07:10:16;;;;;;;13.32;4.13;;;23.60;99.90;;;;;;5015354;28;20052;-80
2022/08/04 07:12:42;;;;;;;12.00;4.75;;;23.60;99.90;;;;;;5033954;28;20116;-81
2022/08/04 07:15:10;;;;;;;12.68;4.47;;;23.80;99.90;;;;;;5015484;28;20124;-80
2022/08/04 07:17:36;;;;;;;15.38;4.57;;;24.00;99.90;;;;;;5015683;28;20056;-80
2022/08/04 07:20:03;;;;;;;12.63;4.95;;;24.00;99.90;;;;;;5033519;28;20048;-81
2022/08/04 07:22:29;;;;;;;12.13;4.78;;;24.00;99.90;;;;;;5016091;28;20052;-81
2022/08/04 07:24:57;;;;;;;11.82;4.45;;;24.00;99.90;;;;;;5032596;28;20374;-81
2022/08/04 07:27:23;;;;;;;10.30;4.22;;;23.90;99.90;;;;;;5015709;28;20103;-81
2022/08/04 07:29:49;;;;;;;17.23;5.30;;;23.90;99.90;;;;;;5033593;28;20049;-81
2022/08/04 07:32:17;;;;;;;14.13;6.18;;;23.90;99.90;;;;;;5032841;28;20124;-81
2022/08/04 07:34:43;;;;;;;13.27;4.90;;;24.00;99.90;;;;;;5033296;28;20124;-81
2022/08/04 07:37:09;;;;;;;12.60;5.05;;;23.90;99.90;;;;;;5033480;28;20042;-81
2022/08/04 07:39:35;;;;;;;13.60;5.22;;;24.00;99.90;;;;;;5015041;28;20477;-81
2022/08/04 07:42:02;;;;;;;11.80;5.15;;;24.00;99.90;;;;;;5015117;28;20064;-83
2022/08/04 07:44:31;;;;;;;13.38;5.40;;;24.10;99.90;;;;;;5015279;28;20045;-83
2022/08/04 07:46:57;;;;;;;13.98;5.45;;;24.20;99.90;;;;;;5014408;28;20400;-83
2022/08/04 07:49:23;;;;;;;14.57;5.07;;;24.20;99.90;;;;;;5033086;28;20444;-82
2022/08/04 07:51:49;;;;;;;14.38;5.25;;;24.40;99.90;;;;;;5015186;28;20049;-83
2022/08/04 07:54:17;;;;;;;13.10;5.13;;;24.40;99.90;;;;;;5014919;28;20462;-83
2022/08/04 07:56:43;;;;;;;11.90;4.97;;;24.50;99.90;;;;;;5015303;28;20089;-83
2022/08/04 07:59:08;;;;;;;14.13;4.90;;;24.50;99.90;;;;;;5014445;28;20084;-83
2022/08/04 08:01:35;;;;;;;13.32;4.60;;;24.60;99.90;;;;;;5032736;28;20037;-82
2022/08/04 08:04:03;;;;;;;14.23;5.40;;;24.70;99.90;;;;;;5015090;28;20061;-82
2022/08/04 08:08:55;;;;;;;14.05;4.65;;;24.80;99.90;;;;;;5071657;22;20049;-82
2022/08/04 08:11:21;;;;;;;12.38;5.05;;;25.00;99.90;;;;;;5008674;28;20045;-82
2022/08/04 08:13:54;;;;;;;12.27;4.70;;;25.10;99.90;;;;;;5040233;28;20033;-83
2022/08/04 08:16:22;;;;;;;14.18;5.30;;;25.10;99.90;;;;;;5041318;28;20050;-82
2022/08/04 08:19:03;;;;;;;15.77;5.03;;;25.20;99.90;;;;;;5024499;28;20053;-81
2022/08/04 08:21:29;;;;;;;13.90;4.75;;;25.30;99.90;;;;;;5038763;28;20454;-81
2022/08/04 08:23:55;;;;;;;11.80;4.35;;;25.30;99.90;;;;;;5023905;28;20041;-82
2022/08/04 08:26:40;;;;;;;13.85;4.32;;;25.40;99.90;;;;;;5027249;28;20044;-83
2022/08/04 08:29:06;;;;;;;15.88;4.65;;;25.50;99.90;;;;;;5033559;28;20044;-82
2022/08/04 08:31:32;;;;;;;13.68;4.22;;;25.60;99.90;;;;;;5005524;23;20142;-82
2022/08/04 08:33:58;;;;;;;16.05;4.70;;;25.70;99.90;;;;;;4992345;28;20129;-82
2022/08/04 08:36:35;;;;;;;11.80;4.28;;;25.60;99.90;;;;;;5000443;28;20100;-82
2022/08/04 08:39:15;;;;;;;11.02;4.35;;;25.70;99.90;;;;;;4996703;28;20050;-82
2022/08/04 08:42:11;;;;;;;13.80;4.85;;;25.80;99.90;;;;;;5012288;28;20172;-82
2022/08/04 08:45:08;;;;;;;13.05;4.20;;;25.80;99.90;;;;;;5012978;28;20042;-82
2022/08/04 08:47:57;;;;;;;10.80;3.83;;;26.00;99.90;;;;;;4994961;28;20481;-82
2022/08/04 08:50:45;;;;;;;13.02;4.32;;;26.30;99.90;;;;;;5012113;28;20120;-82
2022/08/04 08:53:23;;;;;;;11.75;4.05;;;26.50;99.90;;;;;;4994385;28;20042;-82
2022/08/04 08:56:26;;;;;;;11.90;4.28;;;26.80;99.90;;;;;;4993658;28;20048;-82
2022/08/04 08:59:29;;;;;;;8.75;3.85;;;27.00;99.90;;;;;;4994658;28;20050;-82
2022/08/04 09:02:02;;;;;;;14.68;4.00;;;27.20;99.90;;;;;;4994578;28;20050;-82
2022/08/04 09:04:42;;;;;;;12.03;3.93;;;27.20;99.90;;;;;;5011837;28;20104;-82
2022/08/04 09:07:32;;;;;;;11.10;3.60;;;27.30;99.90;;;;;;5012375;28;20124;-82
2022/08/04 09:10:12;;;;;;;11.25;3.70;;;27.50;99.90;;;;;;4993863;28;20050;-82
2022/08/04 09:12:52;;;;;;;11.82;3.70;;;27.60;99.90;;;;;;5012308;28;20120;-82
2022/08/04 09:15:40;;;;;;;10.30;3.40;;;27.70;99.90;;;;;;4994820;28;20057;-82
2022/08/04 09:18:17;;;;;;;13.30;3.45;;;27.80;99.90;;;;;;5011767;28;20042;-82
2022/08/04 09:20:47;;;;;;;12.07;3.65;;;28.00;99.90;;;;;;5012063;28;20049;-82
2022/08/04 09:23:32;;;;;;;10.90;3.88;;;28.20;99.90;;;;;;4994816;28;20401;-82
2022/08/04 09:26:03;;;;;;;13.07;3.83;;;28.30;99.90;;;;;;4994871;28;20045;-82
2022/08/04 09:28:42;;;;;;;13.35;3.50;;;28.40;99.90;;;;;;4994677;28;20046;-82
2022/08/04 09:31:22;;;;;;;9.15;3.40;;;28.50;99.90;;;;;;5011288;28;20050;-82
2022/08/04 09:33:59;;;;;;;10.65;3.35;;;28.40;99.90;;;;;;4994220;28;20041;-81
2022/08/04 09:36:31;;;;;;;14.77;3.55;;;28.50;99.90;;;;;;5013193;28;20046;-82
2022/08/04 09:39:02;;;;;;;10.13;3.33;;;28.40;99.90;;;;;;4997298;28;20458;-82
2022/08/04 09:41:34;;;;;;;9.00;3.00;;;28.50;99.90;;;;;;5021028;23;20149;-82
2022/08/04 09:44:12;;;;;;;12.15;4.05;;;28.70;99.90;;;;;;4997962;28;20050;-82
2022/08/04 09:46:57;;;;;;;9.85;2.95;;;28.70;99.90;;;;;;5014975;28;20046;-82
2022/08/04 09:49:32;;;;;;;11.40;3.40;;;28.90;99.90;;;;;;5015470;28;20476;-82
2022/08/04 09:52:10;;;;;;;11.18;3.47;;;29.00;99.90;;;;;;5014560;28;20096;-82
2022/08/04 09:54:41;;;;;;;11.15;3.75;;;29.10;99.90;;;;;;5015742;28;20041;-82
2022/08/04 09:57:26;;;;;;;12.00;3.20;;;29.10;99.90;;;;;;5015408;28;20034;-81
2022/08/04 10:00:01;;;;;;;14.27;3.65;;;29.10;99.90;;;;;;5014545;28;20064;-80
2022/08/04 10:02:34;;;;;;;11.25;3.65;;;29.30;99.90;;;;;;5015582;28;20049;-80
2022/08/04 10:05:02;;;;;;;14.65;4.20;;;29.30;99.90;;;;;;4997702;28;20050;-83
2022/08/04 10:07:47;;;;;;;11.45;3.80;;;29.50;99.90;;;;;;4990649;28;20088;-82
2022/08/04 10:10:35;;;;;;;11.43;3.30;;;29.60;99.90;;;;;;5012718;28;20054;-82
2022/08/04 10:13:01;;;;;;;10.57;3.33;;;29.60;99.90;;;;;;5006163;28;20576;-82
2022/08/04 10:15:35;;;;;;;10.10;3.45;;;29.40;99.90;;;;;;4980536;28;20052;-82
2022/08/04 10:18:18;;;;;;;10.00;3.30;;;29.40;99.00;;;;;;4995243;28;20406;-82
2022/08/04 10:20:55;;;;;;;10.75;3.53;;;29.30;98.80;;;;;;4976865;28;20038;-82
2022/08/04 10:23:51;;;;;;;11.65;3.75;;;29.40;99.40;;;;;;4982548;28;20052;-82
2022/08/04 10:26:41;;;;;;;12.55;4.05;;;29.50;99.90;;;;;;5000141;28;20398;-82
2022/08/04 10:29:15;;;;;;;12.25;3.83;;;29.60;99.40;;;;;;4981843;28;20074;-82
2022/08/04 10:31:58;;;;;;;11.02;3.63;;;29.90;99.60;;;;;;4979859;28;20405;-81
2022/08/04 10:34:28;;;;;;;10.45;3.30;;;30.20;99.50;;;;;;4986949;28;20057;-83
2022/08/04 10:37:19;;;;;;;12.15;3.28;;;30.30;99.90;;;;;;5003423;28;20043;-82
2022/08/04 10:43:04;;;;;;;11.40;3.65;;;30.00;98.90;;;;;;4996441;28;20454;-82
2022/08/04 10:45:51;;;;;;;10.13;3.50;;;29.80;99.90;;;;;;4997317;28;20037;-81
2022/08/04 10:48:35;;;;;;;9.93;3.28;;;29.80;99.60;;;;;;4995532;28;20498;-82
2022/08/04 10:51:03;;;;;;;9.35;3.25;;;30.10;99.30;;;;;;4996878;28;20049;-81
2022/08/04 10:53:30;;;;;;;9.40;3.50;;;30.50;99.90;;;;;;5014749;28;20046;-81
2022/08/04 10:56:09;;;;;;;11.80;4.15;;;31.00;99.90;;;;;;5013599;28;20121;-81
2022/08/04 10:58:44;;;;;;;12.65;3.80;;;31.40;99.00;;;;;;4996981;28;20046;-82
2022/08/04 11:01:40;;;;;;;12.25;3.75;;;31.30;98.00;;;;;;4996885;28;20045;-82
2022/08/04 11:04:24;;;;;;;10.35;3.90;;;31.30;98.40;;;;;;4991306;28;20104;-84
2022/08/04 11:06:51;;;;;;;11.85;4.40;;;31.20;98.40;;;;;;5004374;28;20136;-85
2022/08/04 11:09:19;;;;;;;10.15;4.10;;;31.30;98.90;;;;;;5004343;28;20054;-86
2022/08/04 11:11:53;;;;;;;9.27;3.60;;;31.60;99.00;;;;;;4986890;28;20041;-85
2022/08/04 11:14:32;;;;;;;11.25;3.78;;;31.60;98.80;;;;;;5003700;28;20482;-85
2022/08/04 11:17:08;;;;;;;11.73;4.18;;;31.70;98.60;;;;;;5002607;28;20031;-85
2022/08/04 11:19:48;;;;;;;13.13;3.97;;;31.60;98.80;;;;;;4985433;28;20100;-84
2022/08/04 11:22:20;;;;;;;12.25;4.20;;;31.60;99.40;;;;;;4985191;28;20038;-84
2022/08/04 11:25:24;;;;;;;15.27;4.28;;;31.30;99.60;;;;;;4989598;28;20511;-86
2022/08/04 11:28:11;;;;;;;11.43;4.15;;;30.90;99.90;;;;;;5013616;28;20049;-85
2022/08/04 11:30:52;;;;;;;8.65;3.50;;;30.50;99.90;;;;;;5001865;28;20050;-85
2022/08/04 11:33:26;;;;;;;12.95;4.22;;;30.40;99.90;;;;;;5002332;28;20391;-85
2022/08/04 11:35:59;;;;;;;11.73;4.43;;;30.30;99.90;;;;;;4985816;28;20124;-85
2022/08/04 11:38:35;;;;;;;11.02;4.30;;;30.20;99.90;;;;;;5007110;28;20030;-85
2022/08/04 11:41:09;;;;;;;13.65;4.80;;;30.10;99.90;;;;;;5009242;28;20081;-85
2022/08/04 11:43:44;;;;;;;13.63;4.05;;;29.90;99.90;;;;;;5005150;28;20070;-85
2022/08/04 11:46:19;;;;;;;12.90;3.88;;;29.90;99.90;;;;;;4985305;28;20053;-87
2022/08/04 11:48:56;;;;;;;10.15;3.60;;;29.60;99.90;;;;;;5002219;28;20457;-87
2022/08/04 11:51:25;;;;;;;9.65;3.45;;;29.50;99.90;;;;;;4995003;28;20143;-86
2022/08/04 11:53:51;;;;;;;10.60;3.65;;;29.30;99.90;;;;;;4995010;28;20050;-87
2022/08/04 11:56:17;;;;;;;8.85;3.40;;;29.10;99.90;;;;;;4996129;28;20510;-87
2022/08/04 11:58:43;;;;;;;10.70;3.40;;;28.90;99.90;;;;;;5012443;28;20048;-86
2022/08/04 12:01:26;;;;;;;11.57;3.30;;;28.60;99.90;;;;;;4994909;28;20477;-87
2022/08/04 12:04:10;;;;;;;8.98;3.03;;;28.20;99.90;;;;;;5013256;28;20037;-86
2022/08/04 12:06:47;;;;;;;8.38;3.00;;;28.00;99.90;;;;;;4995074;28;20071;-87
2022/08/04 12:09:38;;;;;;;10.77;2.92;;;27.80;99.90;;;;;;5013447;28;20046;-86
2022/08/04 12:12:20;;;;;;;10.57;2.70;;;27.70;99.90;;;;;;4995586;28;20041;-87
2022/08/04 12:15:15;;;;;;;10.20;2.90;;;27.60;99.90;;;;;;4995082;28;20091;-87
2022/08/04 12:18:17;;;;;;;9.45;3.17;;;27.50;99.90;;;;;;5013348;28;20394;-86
2022/08/04 12:20:48;;;;;;;7.00;2.40;;;27.40;99.90;;;;;;4982858;28;20073;-87
2022/08/04 12:23:20;;;;;;;10.40;3.10;;;27.40;99.90;;;;;;4995616;28;20132;-87
2022/08/04 12:25:49;;;;;;;10.85;2.92;;;27.20;99.90;;;;;;4995296;28;20049;-86
2022/08/04 12:28:27;;;;;;;11.60;3.13;;;27.20;99.90;;;;;;4994389;28;20081;-86
2022/08/04 12:31:01;;;;;;;9.63;2.60;;;27.10;99.90;;;;;;4995277;28;20500;-87
2022/08/04 12:33:52;;;;;;;9.07;2.35;;;27.00;99.90;;;;;;5007539;23;20141;-87
2022/08/04 12:36:43;;;;;;;11.15;2.60;;;27.20;99.90;;;;;;5004925;28;20054;-87
2022/08/04 12:39:14;;;;;;;10.85;2.60;;;26.80;99.90;;;;;;4992545;28;20046;-85
2022/08/04 12:41:50;;;;;;;10.45;2.50;;;26.60;99.90;;;;;;5013910;23;20529;-85
2022/08/04 12:44:16;;;;;;;9.75;2.53;;;26.50;99.90;;;;;;4981271;28;20046;-86
2022/08/04 12:46:45;;;;;;;9.13;2.60;;;26.30;99.90;;;;;;4997437;28;20046;-86
2022/08/04 12:49:12;;;;;;;9.30;2.58;;;26.20;99.90;;;;;;4976365;28;20042;-86
2022/08/04 12:51:42;;;;;;;7.05;2.60;;;26.10;99.90;;;;;;4975769;28;20085;-85
2022/08/04 12:54:09;;;;;;;8.90;2.80;;;26.00;99.90;;;;;;4975877;28;20038;-86
2022/08/04 12:59:07;;;;;;;9.85;2.63;;;25.50;99.90;;;;;;5005220;23;20066;-85
2022/08/04 13:01:34;;;;;;;7.00;2.80;;;25.30;99.90;;;;;;4975193;28;20054;-85
2022/08/04 13:04:26;;;;;;;8.15;3.00;;;25.10;99.90;;;;;;4975281;28;20490;-85
2022/08/04 13:07:09;;;;;;;11.93;3.10;;;24.90;99.90;;;;;;4982581;28;20498;-81
2022/08/04 13:09:36;;;;;;;9.52;2.97;;;24.70;99.90;;;;;;4975108;28;20042;-82
2022/08/04 13:12:11;;;;;;;9.55;2.83;;;24.60;99.90;;;;;;4994616;28;20045;-82
2022/08/04 13:14:38;;;;;;;9.57;3.00;;;24.60;99.90;;;;;;4979219;28;20090;-82
2022/08/04 13:17:05;;;;;;;8.50;2.65;;;24.50;99.90;;;;;;4978400;28;20053;-82
2022/08/04 13:19:32;;;;;;;8.43;3.17;;;24.60;99.90;;;;;;4979319;28;20054;-82
2022/08/04 13:21:59;;;;;;;9.75;3.20;;;24.80;99.90;;;;;;4996121;28;20490;-82
2022/08/04 13:24:27;;;;;;;11.32;3.15;;;24.30;99.90;;;;;;4995949;28;20043;-82
2022/08/04 13:26:58;;;;;;;7.55;2.90;;;24.60;99.90;;;;;;4978486;28;20486;-82
2022/08/04 13:29:39;;;;;;;9.85;3.10;;;24.60;99.90;;;;;;4996608;28;20085;-82
2022/08/04 13:32:05;;;;;;;10.68;3.20;;;24.70;99.90;;;;;;4978422;28;20054;-81
2022/08/04 13:34:33;;;;;;;8.27;2.75;;;25.00;99.90;;;;;;4978872;28;20034;-82
2022/08/04 13:37:00;;;;;;;8.70;3.08;;;25.10;99.90;;;;;;4995264;28;20057;-83
2022/08/04 13:39:27;;;;;;;8.73;3.05;;;25.40;99.90;;;;;;4996539;28;20081;-82
2022/08/04 13:41:55;;;;;;;7.72;2.85;;;25.40;99.90;;;;;;4978482;28;20050;-82
2022/08/04 13:44:30;;;;;;;8.82;2.63;;;25.70;99.90;;;;;;4978095;28;20494;-82
2022/08/04 13:47:02;;;;;;;8.30;2.67;;;25.90;99.90;;;;;;4977823;28;20561;-81